Aviation Digital Data Service (ADDS)

Output produced by METARs form (2218 UTC 22 July 2018)
found at http://bcaws.aviationweather.gov/adds/metars/
 
METAR text: KMOD 222153Z 33010KT 10SM CLR 34/13 A2997 RMK AO2 SLP150 T03440128
Conditions at: KMOD (MODESTO , CA, US) observed 2153 UTC 22 July 2018
Temperature: 34.4°C (94°F)
Dewpoint: 12.8°C (55°F) [RH = 27%]
Pressure (altimeter): 29.97 inches Hg (1015.0 mb)
[Sea-level pressure: 1015.0 mb]
Winds: from the NNW (330 degrees) at 12 MPH (10 knots; 5.2 m/s)
Visibility: 10 or more miles (16+ km)
Ceiling: at least 12,000 feet AGL
Clouds: sky clear below 12,000 feet AGL
Weather: no significant weather observed at this time

Forecast for: KMOD (MODESTO , CA, US)
Text: KMOD 221720Z 2218/2318 33009KT P6SM SCT200
Forecast period: 1800 UTC 22 July 2018 to 1800 UTC 23 July 2018
Forecast type: FROM: standard forecast or significant change
Winds: from the NNW (330 degrees) at 10 MPH (9 knots; 4.7 m/s)
Visibility: 6 or more miles (10+ km)
Clouds: scattered clouds at 20000 feet AGL
Weather: no significant weather forecast for this period